sensor_id;sensor_type;location;lat;lon;timestamp;P1;durP1;ratioP1;P2;durP2;ratioP2
1471;SDS011;963;42.644;23.336;2023-05-27T00:01:52;8.83;;;7.70;;
1471;SDS011;963;42.644;23.336;2023-05-27T00:04:18;10.90;;;9.10;;
1471;SDS011;963;42.644;23.336;2023-05-27T00:06:43;12.70;;;9.83;;
1471;SDS011;963;42.644;23.336;2023-05-27T00:09:09;12.70;;;10.00;;
1471;SDS011;963;42.644;23.336;2023-05-27T00:11:34;12.40;;;11.10;;
1471;SDS011;963;42.644;23.336;2023-05-27T00:14:00;13.67;;;11.83;;
1471;SDS011;963;42.644;23.336;2023-05-27T00:16:25;14.80;;;12.03;;
1471;SDS011;963;42.644;23.336;2023-05-27T00:18:51;13.20;;;9.97;;
1471;SDS011;963;42.644;23.336;2023-05-27T00:21:17;13.17;;;10.87;;
1471;SDS011;963;42.644;23.336;2023-05-27T00:23:46;13.10;;;9.83;;
1471;SDS011;963;42.644;23.336;2023-05-27T00:26:12;14.77;;;11.20;;
1471;SDS011;963;42.644;23.336;2023-05-27T00:28:37;13.10;;;11.10;;
1471;SDS011;963;42.644;23.336;2023-05-27T00:31:03;11.77;;;10.57;;
1471;SDS011;963;42.644;23.336;2023-05-27T00:33:28;10.20;;;9.07;;
1471;SDS011;963;42.644;23.336;2023-05-27T00:35:54;10.07;;;9.13;;
1471;SDS011;963;42.644;23.336;2023-05-27T00:38:19;10.37;;;8.87;;
1471;SDS011;963;42.644;23.336;2023-05-27T00:40:44;9.50;;;8.03;;
1471;SDS011;963;42.644;23.336;2023-05-27T00:43:11;8.00;;;6.63;;
1471;SDS011;963;42.644;23.336;2023-05-27T00:45:36;6.67;;;5.00;;
1471;SDS011;963;42.644;23.336;2023-05-27T00:48:02;3.77;;;3.43;;
1471;SDS011;963;42.644;23.336;2023-05-27T00:50:28;4.20;;;2.80;;
1471;SDS011;963;42.644;23.336;2023-05-27T00:52:54;2.63;;;2.43;;
1471;SDS011;963;42.644;23.336;2023-05-27T00:55:23;2.90;;;2.50;;
1471;SDS011;963;42.644;23.336;2023-05-27T00:57:49;2.00;;;1.60;;
1471;SDS011;963;42.644;23.336;2023-05-27T01:00:14;2.80;;;1.90;;
1471;SDS011;963;42.644;23.336;2023-05-27T01:02:40;2.40;;;2.03;;
1471;SDS011;963;42.644;23.336;2023-05-27T01:05:08;2.77;;;2.20;;
1471;SDS011;963;42.644;23.336;2023-05-27T01:07:39;2.53;;;2.30;;
1471;SDS011;963;42.644;23.336;2023-05-27T01:15:38;2.53;;;2.17;;
1471;SDS011;963;42.644;23.336;2023-05-27T01:18:04;2.57;;;2.10;;
1471;SDS011;963;42.644;23.336;2023-05-27T01:20:31;2.87;;;2.50;;
1471;SDS011;963;42.644;23.336;2023-05-27T01:22:57;2.50;;;2.13;;
1471;SDS011;963;42.644;23.336;2023-05-27T01:25:24;2.20;;;1.90;;
1471;SDS011;963;42.644;23.336;2023-05-27T01:27:50;1.90;;;1.60;;
1471;SDS011;963;42.644;23.336;2023-05-27T01:30:17;3.80;;;1.77;;
1471;SDS011;963;42.644;23.336;2023-05-27T01:32:45;2.70;;;2.13;;
1471;SDS011;963;42.644;23.336;2023-05-27T01:38:16;2.60;;;2.20;;
1471;SDS011;963;42.644;23.336;2023-05-27T01:40:45;2.73;;;2.00;;
1471;SDS011;963;42.644;23.336;2023-05-27T01:43:13;2.67;;;2.23;;
1471;SDS011;963;42.644;23.336;2023-05-27T01:45:40;3.40;;;1.87;;
1471;SDS011;963;42.644;23.336;2023-05-27T01:48:06;2.37;;;2.10;;
1471;SDS011;963;42.644;23.336;2023-05-27T01:50:32;4.13;;;1.90;;
1471;SDS011;963;42.644;23.336;2023-05-27T01:52:58;1.73;;;1.50;;
1471;SDS011;963;42.644;23.336;2023-05-27T01:55:24;2.50;;;2.07;;
1471;SDS011;963;42.644;23.336;2023-05-27T01:57:50;2.30;;;2.00;;
1471;SDS011;963;42.644;23.336;2023-05-27T02:00:15;3.60;;;2.00;;
1471;SDS011;963;42.644;23.336;2023-05-27T02:02:41;2.33;;;1.80;;
1471;SDS011;963;42.644;23.336;2023-05-27T02:05:07;3.10;;;1.97;;
1471;SDS011;963;42.644;23.336;2023-05-27T02:07:32;2.27;;;1.90;;
1471;SDS011;963;42.644;23.336;2023-05-27T02:09:58;2.57;;;2.00;;
1471;SDS011;963;42.644;23.336;2023-05-27T02:12:23;2.07;;;1.87;;
1471;SDS011;963;42.644;23.336;2023-05-27T02:14:49;2.83;;;1.90;;
1471;SDS011;963;42.644;23.336;2023-05-27T02:17:16;3.27;;;2.17;;
1471;SDS011;963;42.644;23.336;2023-05-27T02:19:41;2.40;;;2.17;;
1471;SDS011;963;42.644;23.336;2023-05-27T02:22:07;2.17;;;1.87;;
1471;SDS011;963;42.644;23.336;2023-05-27T02:24:33;3.60;;;1.97;;
1471;SDS011;963;42.644;23.336;2023-05-27T02:26:58;3.20;;;2.20;;
1471;SDS011;963;42.644;23.336;2023-05-27T02:29:25;2.63;;;2.07;;
1471;SDS011;963;42.644;23.336;2023-05-27T02:31:50;2.70;;;2.30;;
1471;SDS011;963;42.644;23.336;2023-05-27T02:34:15;4.60;;;2.20;;
1471;SDS011;963;42.644;23.336;2023-05-27T02:36:41;2.47;;;2.10;;
1471;SDS011;963;42.644;23.336;2023-05-27T02:39:08;3.03;;;2.40;;
1471;SDS011;963;42.644;23.336;2023-05-27T02:41:33;3.33;;;2.30;;
1471;SDS011;963;42.644;23.336;2023-05-27T02:43:59;4.83;;;3.33;;
1471;SDS011;963;42.644;23.336;2023-05-27T02:46:24;4.10;;;3.13;;
1471;SDS011;963;42.644;23.336;2023-05-27T02:48:50;3.40;;;2.80;;
1471;SDS011;963;42.644;23.336;2023-05-27T02:51:15;8.33;;;3.40;;
1471;SDS011;963;42.644;23.336;2023-05-27T02:53:40;3.80;;;3.00;;
1471;SDS011;963;42.644;23.336;2023-05-27T02:56:06;2.60;;;2.40;;
1471;SDS011;963;42.644;23.336;2023-05-27T02:58:31;4.03;;;2.70;;
1471;SDS011;963;42.644;23.336;2023-05-27T03:00:57;4.33;;;3.00;;
1471;SDS011;963;42.644;23.336;2023-05-27T03:03:22;2.90;;;2.60;;
1471;SDS011;963;42.644;23.336;2023-05-27T03:05:48;4.53;;;2.70;;
1471;SDS011;963;42.644;23.336;2023-05-27T03:08:14;5.03;;;2.57;;
1471;SDS011;963;42.644;23.336;2023-05-27T03:10:40;4.60;;;3.00;;
1471;SDS011;963;42.644;23.336;2023-05-27T03:13:05;3.80;;;2.77;;
1471;SDS011;963;42.644;23.336;2023-05-27T03:15:31;5.60;;;3.00;;
1471;SDS011;963;42.644;23.336;2023-05-27T03:17:57;3.50;;;3.03;;
1471;SDS011;963;42.644;23.336;2023-05-27T03:20:22;4.40;;;3.23;;
1471;SDS011;963;42.644;23.336;2023-05-27T03:22:48;4.20;;;3.80;;
1471;SDS011;963;42.644;23.336;2023-05-27T03:25:14;3.93;;;3.50;;
1471;SDS011;963;42.644;23.336;2023-05-27T03:27:39;5.20;;;3.30;;
1471;SDS011;963;42.644;23.336;2023-05-27T03:30:06;3.40;;;2.90;;
1471;SDS011;963;42.644;23.336;2023-05-27T03:32:32;5.53;;;4.23;;
1471;SDS011;963;42.644;23.336;2023-05-27T03:34:58;5.37;;;3.87;;
1471;SDS011;963;42.644;23.336;2023-05-27T03:37:23;3.80;;;3.40;;
1471;SDS011;963;42.644;23.336;2023-05-27T03:39:49;4.10;;;3.70;;
1471;SDS011;963;42.644;23.336;2023-05-27T03:42:14;5.13;;;3.97;;
1471;SDS011;963;42.644;23.336;2023-05-27T03:44:40;3.97;;;3.57;;
1471;SDS011;963;42.644;23.336;2023-05-27T03:47:05;4.80;;;3.87;;
1471;SDS011;963;42.644;23.336;2023-05-27T03:49:31;4.90;;;4.40;;
1471;SDS011;963;42.644;23.336;2023-05-27T03:51:56;4.83;;;4.00;;
1471;SDS011;963;42.644;23.336;2023-05-27T03:54:22;5.00;;;4.50;;
1471;SDS011;963;42.644;23.336;2023-05-27T03:56:47;5.97;;;4.37;;
1471;SDS011;963;42.644;23.336;2023-05-27T03:59:13;5.53;;;4.57;;
1471;SDS011;963;42.644;23.336;2023-05-27T04:01:39;5.07;;;4.67;;
1471;SDS011;963;42.644;23.336;2023-05-27T04:04:06;5.17;;;4.67;;
1471;SDS011;963;42.644;23.336;2023-05-27T04:06:31;11.00;;;4.83;;
1471;SDS011;963;42.644;23.336;2023-05-27T04:08:57;6.10;;;4.63;;
1471;SDS011;963;42.644;23.336;2023-05-27T04:11:23;4.50;;;4.10;;
1471;SDS011;963;42.644;23.336;2023-05-27T04:13:48;5.43;;;4.67;;
1471;SDS011;963;42.644;23.336;2023-05-27T04:16:14;4.93;;;4.30;;
1471;SDS011;963;42.644;23.336;2023-05-27T04:18:40;7.27;;;4.57;;
1471;SDS011;963;42.644;23.336;2023-05-27T04:21:06;4.50;;;3.97;;
1471;SDS011;963;42.644;23.336;2023-05-27T04:23:33;4.80;;;4.13;;
1471;SDS011;963;42.644;23.336;2023-05-27T04:26:00;4.90;;;4.30;;
1471;SDS011;963;42.644;23.336;2023-05-27T04:28:26;4.87;;;4.37;;
1471;SDS011;963;42.644;23.336;2023-05-27T04:30:52;7.73;;;4.37;;
1471;SDS011;963;42.644;23.336;2023-05-27T04:33:18;6.20;;;4.00;;
1471;SDS011;963;42.644;23.336;2023-05-27T04:35:43;5.07;;;4.47;;
1471;SDS011;963;42.644;23.336;2023-05-27T04:38:10;6.47;;;4.10;;
1471;SDS011;963;42.644;23.336;2023-05-27T04:40:41;7.47;;;4.30;;
1471;SDS011;963;42.644;23.336;2023-05-27T04:43:07;4.33;;;3.60;;
1471;SDS011;963;42.644;23.336;2023-05-27T04:45:32;4.40;;;3.90;;
1471;SDS011;963;42.644;23.336;2023-05-27T04:47:59;5.30;;;4.00;;
1471;SDS011;963;42.644;23.336;2023-05-27T04:50:25;10.13;;;3.77;;
1471;SDS011;963;42.644;23.336;2023-05-27T04:52:51;4.30;;;3.90;;
1471;SDS011;963;42.644;23.336;2023-05-27T04:55:17;5.13;;;3.40;;
1471;SDS011;963;42.644;23.336;2023-05-27T04:57:43;5.63;;;3.73;;
1471;SDS011;963;42.644;23.336;2023-05-27T05:00:08;5.20;;;4.13;;
1471;SDS011;963;42.644;23.336;2023-05-27T05:02:34;4.50;;;4.10;;
1471;SDS011;963;42.644;23.336;2023-05-27T05:05:01;4.50;;;4.10;;
1471;SDS011;963;42.644;23.336;2023-05-27T05:07:27;5.03;;;4.20;;
1471;SDS011;963;42.644;23.336;2023-05-27T05:09:52;5.70;;;4.67;;
1471;SDS011;963;42.644;23.336;2023-05-27T05:12:18;7.23;;;4.30;;
1471;SDS011;963;42.644;23.336;2023-05-27T05:14:43;5.73;;;4.93;;
1471;SDS011;963;42.644;23.336;2023-05-27T05:17:08;5.13;;;4.50;;
1471;SDS011;963;42.644;23.336;2023-05-27T05:19:34;5.73;;;4.40;;
1471;SDS011;963;42.644;23.336;2023-05-27T05:21:59;5.40;;;4.87;;
1471;SDS011;963;42.644;23.336;2023-05-27T05:24:25;5.97;;;5.00;;
1471;SDS011;963;42.644;23.336;2023-05-27T05:26:50;6.10;;;5.43;;
1471;SDS011;963;42.644;23.336;2023-05-27T05:29:15;6.60;;;5.73;;
1471;SDS011;963;42.644;23.336;2023-05-27T05:31:41;7.40;;;5.30;;
1471;SDS011;963;42.644;23.336;2023-05-27T05:34:06;5.50;;;5.00;;
1471;SDS011;963;42.644;23.336;2023-05-27T05:36:32;10.10;;;6.03;;
1471;SDS011;963;42.644;23.336;2023-05-27T05:38:58;6.73;;;5.40;;
1471;SDS011;963;42.644;23.336;2023-05-27T05:41:24;7.27;;;5.70;;
1471;SDS011;963;42.644;23.336;2023-05-27T05:43:49;6.97;;;5.47;;
1471;SDS011;963;42.644;23.336;2023-05-27T05:46:14;8.03;;;5.73;;
1471;SDS011;963;42.644;23.336;2023-05-27T05:48:40;6.63;;;4.93;;
1471;SDS011;963;42.644;23.336;2023-05-27T05:51:05;5.40;;;4.90;;
1471;SDS011;963;42.644;23.336;2023-05-27T05:53:31;5.03;;;4.43;;
1471;SDS011;963;42.644;23.336;2023-05-27T05:55:57;5.33;;;4.50;;
1471;SDS011;963;42.644;23.336;2023-05-27T05:58:22;4.97;;;3.83;;
1471;SDS011;963;42.644;23.336;2023-05-27T06:00:47;8.33;;;4.27;;
1471;SDS011;963;42.644;23.336;2023-05-27T06:03:13;5.37;;;4.60;;
1471;SDS011;963;42.644;23.336;2023-05-27T06:05:38;7.60;;;4.07;;
1471;SDS011;963;42.644;23.336;2023-05-27T06:08:04;5.50;;;4.77;;
1471;SDS011;963;42.644;23.336;2023-05-27T06:10:29;5.80;;;4.37;;
1471;SDS011;963;42.644;23.336;2023-05-27T06:12:55;8.17;;;4.30;;
1471;SDS011;963;42.644;23.336;2023-05-27T06:15:20;5.77;;;3.80;;
1471;SDS011;963;42.644;23.336;2023-05-27T06:17:45;5.30;;;4.43;;
1471;SDS011;963;42.644;23.336;2023-05-27T06:20:12;7.17;;;4.77;;
1471;SDS011;963;42.644;23.336;2023-05-27T06:22:37;5.60;;;4.47;;
1471;SDS011;963;42.644;23.336;2023-05-27T06:25:03;5.73;;;4.90;;
1471;SDS011;963;42.644;23.336;2023-05-27T06:27:29;6.93;;;5.23;;
1471;SDS011;963;42.644;23.336;2023-05-27T06:29:54;11.00;;;5.20;;
1471;SDS011;963;42.644;23.336;2023-05-27T06:32:21;5.43;;;4.83;;
1471;SDS011;963;42.644;23.336;2023-05-27T06:34:47;6.27;;;4.83;;
1471;SDS011;963;42.644;23.336;2023-05-27T06:37:12;8.43;;;5.17;;
1471;SDS011;963;42.644;23.336;2023-05-27T06:39:38;7.07;;;4.90;;
1471;SDS011;963;42.644;23.336;2023-05-27T06:42:03;8.07;;;4.80;;
1471;SDS011;963;42.644;23.336;2023-05-27T06:44:29;6.40;;;4.70;;
1471;SDS011;963;42.644;23.336;2023-05-27T06:46:54;5.53;;;4.90;;
1471;SDS011;963;42.644;23.336;2023-05-27T06:49:19;6.80;;;5.20;;
1471;SDS011;963;42.644;23.336;2023-05-27T06:51:45;7.37;;;5.70;;
1471;SDS011;963;42.644;23.336;2023-05-27T06:54:10;7.63;;;5.50;;
1471;SDS011;963;42.644;23.336;2023-05-27T06:56:37;6.73;;;5.33;;
1471;SDS011;963;42.644;23.336;2023-05-27T06:59:02;8.57;;;5.90;;
1471;SDS011;963;42.644;23.336;2023-05-27T07:01:28;6.20;;;5.60;;
1471;SDS011;963;42.644;23.336;2023-05-27T07:03:53;8.90;;;5.50;;
1471;SDS011;963;42.644;23.336;2023-05-27T07:06:19;8.33;;;5.60;;
1471;SDS011;963;42.644;23.336;2023-05-27T07:08:44;6.63;;;5.47;;
1471;SDS011;963;42.644;23.336;2023-05-27T07:11:10;10.77;;;5.50;;
1471;SDS011;963;42.644;23.336;2023-05-27T07:13:35;9.97;;;5.57;;
1471;SDS011;963;42.644;23.336;2023-05-27T07:16:01;11.70;;;6.07;;
1471;SDS011;963;42.644;23.336;2023-05-27T07:18:26;17.83;;;7.00;;
1471;SDS011;963;42.644;23.336;2023-05-27T07:20:51;9.10;;;5.17;;
1471;SDS011;963;42.644;23.336;2023-05-27T07:23:17;11.37;;;6.33;;
1471;SDS011;963;42.644;23.336;2023-05-27T07:25:42;8.50;;;6.50;;
1471;SDS011;963;42.644;23.336;2023-05-27T07:28:08;11.30;;;6.43;;
1471;SDS011;963;42.644;23.336;2023-05-27T07:30:33;7.60;;;6.00;;
1471;SDS011;963;42.644;23.336;2023-05-27T07:32:58;12.80;;;8.50;;
1471;SDS011;963;42.644;23.336;2023-05-27T07:35:24;8.40;;;6.30;;
1471;SDS011;963;42.644;23.336;2023-05-27T07:37:49;13.67;;;9.80;;
1471;SDS011;963;42.644;23.336;2023-05-27T07:40:15;8.93;;;7.20;;
1471;SDS011;963;42.644;23.336;2023-05-27T07:42:40;12.33;;;6.70;;
1471;SDS011;963;42.644;23.336;2023-05-27T07:45:06;12.07;;;6.67;;
1471;SDS011;963;42.644;23.336;2023-05-27T07:47:32;7.53;;;5.90;;
1471;SDS011;963;42.644;23.336;2023-05-27T07:49:57;7.50;;;6.80;;
1471;SDS011;963;42.644;23.336;2023-05-27T07:52:22;7.77;;;6.37;;
1471;SDS011;963;42.644;23.336;2023-05-27T07:54:48;8.17;;;6.20;;
1471;SDS011;963;42.644;23.336;2023-05-27T07:57:14;8.03;;;5.43;;
1471;SDS011;963;42.644;23.336;2023-05-27T07:59:42;6.90;;;5.73;;
1471;SDS011;963;42.644;23.336;2023-05-27T08:02:08;13.13;;;6.20;;
1471;SDS011;963;42.644;23.336;2023-05-27T08:04:34;14.23;;;5.57;;
1471;SDS011;963;42.644;23.336;2023-05-27T08:06:59;8.27;;;5.33;;
1471;SDS011;963;42.644;23.336;2023-05-27T08:09:25;6.50;;;5.17;;
1471;SDS011;963;42.644;23.336;2023-05-27T08:11:50;7.33;;;5.13;;
1471;SDS011;963;42.644;23.336;2023-05-27T08:14:16;4.57;;;4.07;;
1471;SDS011;963;42.644;23.336;2023-05-27T08:16:41;4.23;;;3.83;;
1471;SDS011;963;42.644;23.336;2023-05-27T08:19:07;6.30;;;3.53;;
1471;SDS011;963;42.644;23.336;2023-05-27T08:21:32;6.77;;;4.00;;
1471;SDS011;963;42.644;23.336;2023-05-27T08:23:58;5.30;;;4.07;;
1471;SDS011;963;42.644;23.336;2023-05-27T08:26:23;5.80;;;4.23;;
1471;SDS011;963;42.644;23.336;2023-05-27T08:28:48;5.00;;;4.50;;
1471;SDS011;963;42.644;23.336;2023-05-27T08:31:14;4.80;;;4.30;;
1471;SDS011;963;42.644;23.336;2023-05-27T08:33:39;7.73;;;4.50;;
1471;SDS011;963;42.644;23.336;2023-05-27T08:36:05;7.57;;;4.97;;
1471;SDS011;963;42.644;23.336;2023-05-27T08:38:31;10.40;;;5.40;;
1471;SDS011;963;42.644;23.336;2023-05-27T08:40:56;9.27;;;4.90;;
1471;SDS011;963;42.644;23.336;2023-05-27T08:43:23;6.80;;;4.90;;
1471;SDS011;963;42.644;23.336;2023-05-27T08:45:50;5.70;;;5.10;;
1471;SDS011;963;42.644;23.336;2023-05-27T08:48:15;8.37;;;5.07;;
1471;SDS011;963;42.644;23.336;2023-05-27T08:50:41;6.57;;;5.20;;
1471;SDS011;963;42.644;23.336;2023-05-27T08:53:06;14.03;;;5.10;;
1471;SDS011;963;42.644;23.336;2023-05-27T08:55:33;8.87;;;5.57;;
1471;SDS011;963;42.644;23.336;2023-05-27T08:58:01;11.60;;;6.43;;
1471;SDS011;963;42.644;23.336;2023-05-27T09:00:27;8.67;;;5.90;;
1471;SDS011;963;42.644;23.336;2023-05-27T09:02:53;6.10;;;5.27;;
1471;SDS011;963;42.644;23.336;2023-05-27T09:05:25;6.60;;;4.80;;
1471;SDS011;963;42.644;23.336;2023-05-27T09:07:51;7.17;;;4.57;;
1471;SDS011;963;42.644;23.336;2023-05-27T09:10:16;5.30;;;4.80;;
1471;SDS011;963;42.644;23.336;2023-05-27T09:12:43;6.60;;;5.40;;
1471;SDS011;963;42.644;23.336;2023-05-27T09:15:12;8.57;;;5.97;;
1471;SDS011;963;42.644;23.336;2023-05-27T09:17:41;8.10;;;5.60;;
1471;SDS011;963;42.644;23.336;2023-05-27T09:20:07;6.80;;;5.33;;
1471;SDS011;963;42.644;23.336;2023-05-27T09:22:35;7.60;;;5.40;;
1471;SDS011;963;42.644;23.336;2023-05-27T09:25:00;9.90;;;6.00;;
1471;SDS011;963;42.644;23.336;2023-05-27T09:27:30;8.10;;;5.57;;
1471;SDS011;963;42.644;23.336;2023-05-27T09:29:56;5.20;;;4.57;;
1471;SDS011;963;42.644;23.336;2023-05-27T09:32:24;6.30;;;4.70;;
1471;SDS011;963;42.644;23.336;2023-05-27T09:34:59;6.70;;;5.10;;
1471;SDS011;963;42.644;23.336;2023-05-27T09:37:26;7.20;;;5.53;;
1471;SDS011;963;42.644;23.336;2023-05-27T09:40:00;6.77;;;6.03;;
1471;SDS011;963;42.644;23.336;2023-05-27T09:45:21;9.10;;;5.50;;
1471;SDS011;963;42.644;23.336;2023-05-27T09:47:47;6.43;;;5.67;;
1471;SDS011;963;42.644;23.336;2023-05-27T09:50:13;10.97;;;6.37;;
1471;SDS011;963;42.644;23.336;2023-05-27T09:52:39;10.17;;;6.50;;
1471;SDS011;963;42.644;23.336;2023-05-27T09:55:06;7.37;;;5.50;;
1471;SDS011;963;42.644;23.336;2023-05-27T09:57:34;5.90;;;5.00;;
1471;SDS011;963;42.644;23.336;2023-05-27T10:00:00;11.17;;;6.20;;
1471;SDS011;963;42.644;23.336;2023-05-27T10:02:35;7.30;;;6.13;;
1471;SDS011;963;42.644;23.336;2023-05-27T10:05:02;6.10;;;5.30;;
1471;SDS011;963;42.644;23.336;2023-05-27T10:07:30;7.37;;;5.13;;
1471;SDS011;963;42.644;23.336;2023-05-27T10:09:56;6.53;;;4.60;;
1471;SDS011;963;42.644;23.336;2023-05-27T10:12:21;9.17;;;4.90;;
1471;SDS011;963;42.644;23.336;2023-05-27T10:14:48;8.70;;;5.90;;
1471;SDS011;963;42.644;23.336;2023-05-27T10:17:13;13.27;;;7.07;;
1471;SDS011;963;42.644;23.336;2023-05-27T10:19:48;9.27;;;5.47;;
1471;SDS011;963;42.644;23.336;2023-05-27T10:22:18;10.27;;;5.83;;
1471;SDS011;963;42.644;23.336;2023-05-27T10:24:45;21.67;;;8.83;;
1471;SDS011;963;42.644;23.336;2023-05-27T10:27:13;12.67;;;7.27;;
1471;SDS011;963;42.644;23.336;2023-05-27T10:29:39;8.03;;;6.00;;
1471;SDS011;963;42.644;23.336;2023-05-27T10:32:04;15.20;;;7.47;;
1471;SDS011;963;42.644;23.336;2023-05-27T10:34:37;9.30;;;5.73;;
1471;SDS011;963;42.644;23.336;2023-05-27T10:37:06;7.90;;;5.60;;
1471;SDS011;963;42.644;23.336;2023-05-27T10:39:32;14.10;;;6.60;;
1471;SDS011;963;42.644;23.336;2023-05-27T10:41:57;7.70;;;6.37;;
1471;SDS011;963;42.644;23.336;2023-05-27T10:49:32;5.97;;;5.27;;
1471;SDS011;963;42.644;23.336;2023-05-27T10:52:09;9.20;;;6.50;;
1471;SDS011;963;42.644;23.336;2023-05-27T10:54:38;7.57;;;6.80;;
1471;SDS011;963;42.644;23.336;2023-05-27T10:57:08;6.80;;;5.80;;
1471;SDS011;963;42.644;23.336;2023-05-27T11:02:28;6.63;;;4.97;;
1471;SDS011;963;42.644;23.336;2023-05-27T11:05:00;6.33;;;5.30;;
1471;SDS011;963;42.644;23.336;2023-05-27T11:07:25;10.37;;;5.77;;
1471;SDS011;963;42.644;23.336;2023-05-27T11:09:51;11.20;;;5.73;;
1471;SDS011;963;42.644;23.336;2023-05-27T11:12:21;6.97;;;5.97;;
1471;SDS011;963;42.644;23.336;2023-05-27T11:14:52;6.93;;;6.23;;
1471;SDS011;963;42.644;23.336;2023-05-27T11:17:21;8.07;;;5.77;;
1471;SDS011;963;42.644;23.336;2023-05-27T11:19:47;8.53;;;6.47;;
1471;SDS011;963;42.644;23.336;2023-05-27T11:22:14;6.20;;;5.60;;
1471;SDS011;963;42.644;23.336;2023-05-27T11:24:42;7.90;;;6.10;;
1471;SDS011;963;42.644;23.336;2023-05-27T11:27:11;8.50;;;5.60;;
1471;SDS011;963;42.644;23.336;2023-05-27T11:29:38;6.40;;;5.80;;
1471;SDS011;963;42.644;23.336;2023-05-27T11:32:04;7.37;;;6.00;;
1471;SDS011;963;42.644;23.336;2023-05-27T11:34:30;8.97;;;6.50;;
1471;SDS011;963;42.644;23.336;2023-05-27T11:37:02;9.03;;;6.60;;
1471;SDS011;963;42.644;23.336;2023-05-27T11:39:31;10.23;;;6.90;;
1471;SDS011;963;42.644;23.336;2023-05-27T11:41:57;11.70;;;7.40;;
1471;SDS011;963;42.644;23.336;2023-05-27T11:44:23;7.20;;;6.50;;
1471;SDS011;963;42.644;23.336;2023-05-27T11:46:50;8.50;;;6.27;;
1471;SDS011;963;42.644;23.336;2023-05-27T11:49:22;8.60;;;5.73;;
1471;SDS011;963;42.644;23.336;2023-05-27T11:51:51;7.67;;;6.10;;
1471;SDS011;963;42.644;23.336;2023-05-27T11:56:45;6.87;;;6.17;;
1471;SDS011;963;42.644;23.336;2023-05-27T11:59:12;9.57;;;6.67;;
1471;SDS011;963;42.644;23.336;2023-05-27T12:01:38;6.60;;;5.90;;
1471;SDS011;963;42.644;23.336;2023-05-27T12:04:05;8.10;;;6.30;;
1471;SDS011;963;42.644;23.336;2023-05-27T12:06:31;7.30;;;5.57;;
1471;SDS011;963;42.644;23.336;2023-05-27T12:08:56;8.10;;;5.73;;
1471;SDS011;963;42.644;23.336;2023-05-27T12:11:22;6.33;;;5.73;;
1471;SDS011;963;42.644;23.336;2023-05-27T12:13:47;7.07;;;5.60;;
1471;SDS011;963;42.644;23.336;2023-05-27T12:16:13;8.67;;;5.53;;
1471;SDS011;963;42.644;23.336;2023-05-27T12:18:39;7.10;;;4.93;;
1471;SDS011;963;42.644;23.336;2023-05-27T12:21:06;10.10;;;6.20;;
1471;SDS011;963;42.644;23.336;2023-05-27T12:23:32;7.23;;;5.80;;
1471;SDS011;963;42.644;23.336;2023-05-27T12:25:58;8.10;;;5.87;;
1471;SDS011;963;42.644;23.336;2023-05-27T12:28:24;7.00;;;4.73;;
1471;SDS011;963;42.644;23.336;2023-05-27T12:30:49;8.20;;;5.30;;
1471;SDS011;963;42.644;23.336;2023-05-27T12:33:15;6.60;;;5.30;;
1471;SDS011;963;42.644;23.336;2023-05-27T12:35:40;5.93;;;4.10;;
1471;SDS011;963;42.644;23.336;2023-05-27T12:38:06;14.77;;;6.10;;
1471;SDS011;963;42.644;23.336;2023-05-27T12:40:31;8.43;;;6.17;;
1471;SDS011;963;42.644;23.336;2023-05-27T12:42:57;8.00;;;5.27;;
1471;SDS011;963;42.644;23.336;2023-05-27T12:45:23;5.63;;;4.90;;
1471;SDS011;963;42.644;23.336;2023-05-27T12:47:50;6.80;;;5.70;;
1471;SDS011;963;42.644;23.336;2023-05-27T12:50:18;6.10;;;5.20;;
1471;SDS011;963;42.644;23.336;2023-05-27T12:52:44;5.40;;;4.70;;
1471;SDS011;963;42.644;23.336;2023-05-27T12:55:16;5.90;;;4.67;;
1471;SDS011;963;42.644;23.336;2023-05-27T12:57:43;6.23;;;5.60;;
1471;SDS011;963;42.644;23.336;2023-05-27T13:00:09;6.07;;;5.40;;
1471;SDS011;963;42.644;23.336;2023-05-27T13:02:36;6.83;;;6.13;;
1471;SDS011;963;42.644;23.336;2023-05-27T13:05:02;5.03;;;4.53;;
1471;SDS011;963;42.644;23.336;2023-05-27T13:07:29;6.20;;;5.00;;
1471;SDS011;963;42.644;23.336;2023-05-27T13:09:54;7.50;;;5.23;;
1471;SDS011;963;42.644;23.336;2023-05-27T13:12:21;5.87;;;5.27;;
1471;SDS011;963;42.644;23.336;2023-05-27T13:14:47;6.93;;;6.23;;
1471;SDS011;963;42.644;23.336;2023-05-27T13:17:13;11.13;;;6.70;;
1471;SDS011;963;42.644;23.336;2023-05-27T13:19:38;6.03;;;5.13;;
1471;SDS011;963;42.644;23.336;2023-05-27T13:22:04;5.90;;;5.07;;
1471;SDS011;963;42.644;23.336;2023-05-27T13:24:29;6.50;;;5.20;;
1471;SDS011;963;42.644;23.336;2023-05-27T13:26:55;7.73;;;5.87;;
1471;SDS011;963;42.644;23.336;2023-05-27T13:29:20;9.30;;;5.27;;
1471;SDS011;963;42.644;23.336;2023-05-27T13:31:46;5.80;;;5.30;;
1471;SDS011;963;42.644;23.336;2023-05-27T13:34:11;6.53;;;4.60;;
1471;SDS011;963;42.644;23.336;2023-05-27T13:36:37;7.33;;;5.13;;
1471;SDS011;963;42.644;23.336;2023-05-27T13:39:03;6.70;;;5.30;;
1471;SDS011;963;42.644;23.336;2023-05-27T13:41:28;7.43;;;5.37;;
1471;SDS011;963;42.644;23.336;2023-05-27T13:43:53;5.57;;;5.00;;
1471;SDS011;963;42.644;23.336;2023-05-27T13:46:19;7.20;;;5.23;;
1471;SDS011;963;42.644;23.336;2023-05-27T13:48:45;5.87;;;4.77;;
1471;SDS011;963;42.644;23.336;2023-05-27T13:51:10;5.83;;;4.90;;
1471;SDS011;963;42.644;23.336;2023-05-27T13:53:36;6.97;;;4.97;;
1471;SDS011;963;42.644;23.336;2023-05-27T13:56:01;6.57;;;5.00;;
1471;SDS011;963;42.644;23.336;2023-05-27T13:58:26;8.03;;;5.37;;
1471;SDS011;963;42.644;23.336;2023-05-27T14:00:53;6.80;;;5.10;;
1471;SDS011;963;42.644;23.336;2023-05-27T14:03:20;6.60;;;5.17;;
1471;SDS011;963;42.644;23.336;2023-05-27T14:05:45;5.23;;;4.73;;
1471;SDS011;963;42.644;23.336;2023-05-27T14:08:11;5.23;;;4.73;;
1471;SDS011;963;42.644;23.336;2023-05-27T14:10:36;5.60;;;4.63;;
1471;SDS011;963;42.644;23.336;2023-05-27T14:13:02;5.67;;;4.77;;
1471;SDS011;963;42.644;23.336;2023-05-27T14:15:27;7.80;;;4.97;;
1471;SDS011;963;42.644;23.336;2023-05-27T14:17:54;5.20;;;4.70;;
1471;SDS011;963;42.644;23.336;2023-05-27T14:20:20;5.43;;;4.70;;
1471;SDS011;963;42.644;23.336;2023-05-27T14:22:45;8.67;;;4.90;;
1471;SDS011;963;42.644;23.336;2023-05-27T14:25:11;6.50;;;3.93;;
1471;SDS011;963;42.644;23.336;2023-05-27T14:27:37;7.80;;;5.33;;
1471;SDS011;963;42.644;23.336;2023-05-27T14:30:03;5.40;;;4.90;;
1471;SDS011;963;42.644;23.336;2023-05-27T14:32:29;6.03;;;4.70;;
1471;SDS011;963;42.644;23.336;2023-05-27T14:34:55;5.00;;;4.43;;
1471;SDS011;963;42.644;23.336;2023-05-27T14:37:21;4.80;;;4.40;;
1471;SDS011;963;42.644;23.336;2023-05-27T14:39:47;4.93;;;4.20;;
1471;SDS011;963;42.644;23.336;2023-05-27T14:42:12;9.83;;;5.03;;
1471;SDS011;963;42.644;23.336;2023-05-27T14:44:37;5.40;;;4.90;;
1471;SDS011;963;42.644;23.336;2023-05-27T14:47:03;6.20;;;4.87;;
1471;SDS011;963;42.644;23.336;2023-05-27T14:49:29;5.17;;;4.67;;
1471;SDS011;963;42.644;23.336;2023-05-27T14:51:54;5.43;;;4.93;;
1471;SDS011;963;42.644;23.336;2023-05-27T14:54:20;6.43;;;5.70;;
1471;SDS011;963;42.644;23.336;2023-05-27T14:56:46;6.93;;;5.70;;
1471;SDS011;963;42.644;23.336;2023-05-27T14:59:12;11.60;;;5.20;;
1471;SDS011;963;42.644;23.336;2023-05-27T15:01:37;6.70;;;5.10;;
1471;SDS011;963;42.644;23.336;2023-05-27T15:04:03;5.87;;;5.37;;
1471;SDS011;963;42.644;23.336;2023-05-27T15:06:29;4.73;;;4.33;;
1471;SDS011;963;42.644;23.336;2023-05-27T15:08:55;7.17;;;5.47;;
1471;SDS011;963;42.644;23.336;2023-05-27T15:11:21;7.00;;;5.40;;
1471;SDS011;963;42.644;23.336;2023-05-27T15:13:47;6.00;;;5.03;;
1471;SDS011;963;42.644;23.336;2023-05-27T15:16:12;5.33;;;4.83;;
1471;SDS011;963;42.644;23.336;2023-05-27T15:18:37;5.60;;;5.10;;
1471;SDS011;963;42.644;23.336;2023-05-27T15:21:03;6.27;;;4.63;;
1471;SDS011;963;42.644;23.336;2023-05-27T15:23:28;5.40;;;4.90;;
1471;SDS011;963;42.644;23.336;2023-05-27T15:25:54;8.30;;;5.20;;
1471;SDS011;963;42.644;23.336;2023-05-27T15:28:19;9.77;;;5.60;;